Time;durP1;ratioP1;P1;durP2;ratioP2;P2;SDS_P1;SDS_P2;PMS_P1;PMS_P2;Temp;Humidity;BMP_temperature;BMP_pressure;BME280_temperature;BME280_humidity;BME280_pressure;Samples;Min_cycle;Max_cycle;Signal;HPM_P1;HPM_P2
2021/08/23 00:01:19;;;;;;;24.20;13.85;;;15.40;89.80;;;;;;4821826;29;20512;-75
2021/08/23 00:03:46;;;;;;;24.35;13.80;;;15.40;89.90;;;;;;4812509;29;20050;-75
2021/08/23 00:06:14;;;;;;;29.55;14.55;;;15.40;89.80;;;;;;4823680;29;20051;-75
2021/08/23 00:08:42;;;;;;;21.52;13.40;;;15.50;89.80;;;;;;4836932;29;20051;-75
2021/08/23 00:11:10;;;;;;;22.65;13.52;;;15.50;89.80;;;;;;4826695;29;20058;-75
2021/08/23 00:13:38;;;;;;;24.00;14.60;;;15.50;89.80;;;;;;4822757;29;20505;-75
2021/08/23 00:16:05;;;;;;;22.58;14.10;;;15.60;89.80;;;;;;4822221;29;20414;-74
2021/08/23 00:18:33;;;;;;;26.58;14.80;;;15.50;89.80;;;;;;4816666;29;20355;-74
2021/08/23 00:21:02;;;;;;;26.15;14.15;;;15.60;89.80;;;;;;4816024;29;20050;-74
2021/08/23 00:23:36;;;;;;;27.80;15.88;;;15.60;89.80;;;;;;4844338;29;20057;-75
2021/08/23 00:26:21;;;;;;;24.58;15.82;;;15.50;89.70;;;;;;4834924;29;20050;-76
2021/08/23 00:29:01;;;;;;;32.78;17.08;;;15.60;89.70;;;;;;4826279;29;20058;-74
2021/08/23 00:31:29;;;;;;;28.65;17.70;;;15.60;89.70;;;;;;4826291;29;20062;-74
2021/08/23 00:33:57;;;;;;;29.15;16.08;;;15.60;89.70;;;;;;4826435;29;20496;-81
2021/08/23 00:36:25;;;;;;;31.42;17.75;;;15.60;89.80;;;;;;4809665;29;20055;-75
2021/08/23 00:38:56;;;;;;;31.63;17.52;;;15.60;89.80;;;;;;4825296;29;20061;-76
2021/08/23 00:41:26;;;;;;;31.83;17.90;;;15.60;89.90;;;;;;4825355;29;20042;-76
2021/08/23 00:43:54;;;;;;;31.60;18.95;;;15.60;89.90;;;;;;4825135;29;20791;-75
2021/08/23 00:46:21;;;;;;;38.22;19.80;;;15.60;90.00;;;;;;4839582;29;20412;-75
2021/08/23 00:48:51;;;;;;;32.90;17.75;;;15.60;90.10;;;;;;4825057;29;20054;-75
2021/08/23 00:51:20;;;;;;;40.83;17.58;;;15.50;90.20;;;;;;4824736;29;20061;-75
2021/08/23 00:53:49;;;;;;;32.40;18.25;;;15.60;90.20;;;;;;4825733;29;20231;-73
2021/08/23 00:56:18;;;;;;;33.85;18.70;;;15.50;90.30;;;;;;4810088;29;20081;-74
2021/08/23 00:58:51;;;;;;;34.80;18.00;;;15.50;90.30;;;;;;4840144;29;20338;-75
2021/08/23 01:01:29;;;;;;;30.75;18.13;;;15.50;90.40;;;;;;4827561;29;20058;-74
2021/08/23 01:04:02;;;;;;;33.85;18.63;;;15.50;90.40;;;;;;4830202;29;20053;-75
2021/08/23 01:06:31;;;;;;;35.75;19.77;;;15.50;90.50;;;;;;4826472;29;20054;-74
2021/08/23 01:09:10;;;;;;;33.83;19.63;;;15.50;90.40;;;;;;4829713;29;20530;-74
2021/08/23 01:11:45;;;;;;;31.63;20.13;;;15.50;90.50;;;;;;4830928;29;20523;-75
2021/08/23 01:14:13;;;;;;;33.42;19.60;;;15.50;90.50;;;;;;4826107;29;20406;-74
2021/08/23 01:16:41;;;;;;;31.65;19.92;;;15.50;90.50;;;;;;4833452;29;20066;-75
2021/08/23 01:19:10;;;;;;;38.20;19.42;;;15.50;90.60;;;;;;4820175;29;20050;-74
2021/08/23 01:21:38;;;;;;;32.72;20.17;;;15.50;90.60;;;;;;4815911;29;20051;-74
2021/08/23 01:24:09;;;;;;;31.63;18.63;;;15.50;90.70;;;;;;4816657;29;20065;-74
2021/08/23 01:26:44;;;;;;;29.02;18.23;;;15.50;90.70;;;;;;4829519;29;20050;-74
2021/08/23 01:29:17;;;;;;;36.28;19.38;;;15.50;90.70;;;;;;4806302;29;20065;-74
2021/08/23 01:31:56;;;;;;;28.88;17.42;;;15.50;90.70;;;;;;4820154;29;20397;-74
2021/08/23 01:34:25;;;;;;;28.92;17.00;;;15.50;90.70;;;;;;4820005;29;20062;-74
2021/08/23 01:36:53;;;;;;;24.88;16.33;;;15.50;90.70;;;;;;4825832;29;20517;-74
2021/08/23 01:39:21;;;;;;;29.23;17.27;;;15.50;90.80;;;;;;4806252;29;20429;-75
2021/08/23 01:41:49;;;;;;;31.42;16.50;;;15.50;90.80;;;;;;4821493;29;20062;-75
2021/08/23 01:44:17;;;;;;;30.33;16.15;;;15.50;90.80;;;;;;4821604;29;20046;-75
2021/08/23 01:46:44;;;;;;;29.10;15.70;;;15.50;90.90;;;;;;4829845;29;20508;-75
2021/08/23 01:49:12;;;;;;;29.42;16.27;;;15.50;90.90;;;;;;4832351;29;20118;-76
2021/08/23 01:51:40;;;;;;;28.38;15.57;;;15.50;90.90;;;;;;4823236;29;20042;-76
2021/08/23 01:54:08;;;;;;;24.60;14.73;;;15.50;90.90;;;;;;4836204;29;20047;-75
2021/08/23 01:56:35;;;;;;;29.88;15.75;;;15.60;90.90;;;;;;4830820;29;20047;-76
2021/08/23 01:59:03;;;;;;;32.70;16.50;;;15.50;91.00;;;;;;4832440;29;20488;-75
2021/08/23 02:01:32;;;;;;;31.73;16.92;;;15.50;91.00;;;;;;4825863;29;20050;-76
2021/08/23 02:04:00;;;;;;;27.20;16.58;;;15.50;91.00;;;;;;4840207;29;20463;-76
2021/08/23 02:06:28;;;;;;;30.17;17.30;;;15.50;91.00;;;;;;4839636;29;20066;-76
2021/08/23 02:08:55;;;;;;;35.85;17.77;;;15.50;91.00;;;;;;4847585;29;20488;-76
2021/08/23 02:11:24;;;;;;;33.92;17.85;;;15.50;91.00;;;;;;4832569;29;20063;-76
2021/08/23 02:13:53;;;;;;;32.10;16.95;;;15.50;91.10;;;;;;4838764;29;20299;-76
2021/08/23 02:16:21;;;;;;;33.47;16.75;;;15.50;91.20;;;;;;4827104;29;20532;-74
2021/08/23 02:18:49;;;;;;;30.35;16.88;;;15.60;91.20;;;;;;4819580;29;20047;-74
2021/08/23 02:21:19;;;;;;;31.60;17.67;;;15.60;91.20;;;;;;4825927;29;20497;-75
2021/08/23 02:23:50;;;;;;;33.80;16.70;;;15.60;91.10;;;;;;4845393;29;20050;-74
2021/08/23 02:26:18;;;;;;;34.95;17.27;;;15.60;91.10;;;;;;4825539;29;20065;-75
2021/08/23 02:28:46;;;;;;;37.63;20.30;;;15.60;91.10;;;;;;4841649;29;20042;-74
2021/08/23 02:31:14;;;;;;;32.80;18.48;;;15.70;91.10;;;;;;4834080;29;20054;-75
2021/08/23 02:33:42;;;;;;;35.85;19.42;;;15.60;91.10;;;;;;4824191;29;20069;-74
2021/08/23 02:36:10;;;;;;;32.55;18.90;;;15.60;91.20;;;;;;4838650;29;20062;-74
2021/08/23 02:38:37;;;;;;;38.03;19.42;;;15.60;91.20;;;;;;4822672;29;20081;-74
2021/08/23 02:41:05;;;;;;;42.00;20.38;;;15.60;91.20;;;;;;4831208;29;20050;-74
2021/08/23 02:43:33;;;;;;;39.58;20.30;;;15.60;91.20;;;;;;4830011;29;20328;-74
2021/08/23 02:46:01;;;;;;;36.38;20.67;;;15.60;91.20;;;;;;4827617;29;20050;-74
2021/08/23 02:48:29;;;;;;;36.55;19.88;;;15.60;91.20;;;;;;4841277;29;20053;-73
2021/08/23 02:50:57;;;;;;;39.78;20.95;;;15.60;91.30;;;;;;4833443;29;20471;-75
2021/08/23 02:53:25;;;;;;;36.33;20.77;;;15.60;91.30;;;;;;4835748;29;20057;-74
2021/08/23 02:55:52;;;;;;;43.55;21.20;;;15.60;91.30;;;;;;4826973;29;20065;-75
2021/08/23 02:58:20;;;;;;;34.88;20.83;;;15.60;91.30;;;;;;4836619;29;20504;-75
2021/08/23 03:00:48;;;;;;;41.28;21.17;;;15.70;91.40;;;;;;4844934;29;20046;-75
2021/08/23 03:03:16;;;;;;;42.38;22.40;;;15.70;91.40;;;;;;4830614;29;20042;-74
2021/08/23 03:05:44;;;;;;;50.55;22.80;;;15.70;91.40;;;;;;4822363;29;20441;-74
2021/08/23 03:08:12;;;;;;;50.72;23.42;;;15.70;91.30;;;;;;4810688;29;20057;-74
2021/08/23 03:10:41;;;;;;;50.83;23.70;;;15.60;91.30;;;;;;4835516;29;20046;-74
2021/08/23 03:13:09;;;;;;;54.65;23.67;;;15.60;91.40;;;;;;4833399;29;20078;-74
2021/08/23 03:15:37;;;;;;;53.63;24.95;;;15.60;91.40;;;;;;4812074;29;20057;-74
2021/08/23 03:18:04;;;;;;;59.30;25.63;;;15.60;91.40;;;;;;4838362;29;20050;-75
2021/08/23 03:20:32;;;;;;;56.85;26.05;;;15.60;91.40;;;;;;4822265;29;20059;-75
2021/08/23 03:22:59;;;;;;;62.53;27.02;;;15.60;91.50;;;;;;4823512;29;20065;-75
2021/08/23 03:25:27;;;;;;;59.17;26.70;;;15.60;91.50;;;;;;4822158;29;20058;-75
2021/08/23 03:27:55;;;;;;;63.05;26.63;;;15.60;91.50;;;;;;4822739;29;20058;-75
2021/08/23 03:30:23;;;;;;;61.20;26.67;;;15.60;91.60;;;;;;4837084;29;20050;-75
2021/08/23 03:32:51;;;;;;;75.28;29.80;;;15.60;91.60;;;;;;4820022;29;20054;-75
2021/08/23 03:35:21;;;;;;;74.95;28.67;;;15.60;91.60;;;;;;4818364;29;20054;-75
2021/08/23 03:37:50;;;;;;;72.50;28.25;;;15.60;91.70;;;;;;4791584;29;20058;-75
2021/08/23 03:40:18;;;;;;;70.53;28.23;;;15.60;91.80;;;;;;4852447;29;20062;-75
2021/08/23 03:42:47;;;;;;;80.07;28.60;;;15.60;91.80;;;;;;4840256;29;20053;-76
2021/08/23 03:45:16;;;;;;;87.75;31.02;;;15.60;91.80;;;;;;4807374;29;20058;-76
2021/08/23 03:47:44;;;;;;;82.40;28.77;;;15.60;91.80;;;;;;4824220;29;20077;-76
2021/08/23 03:50:13;;;;;;;69.25;29.15;;;15.60;91.90;;;;;;4840226;29;20046;-76
2021/08/23 03:52:41;;;;;;;77.80;28.77;;;15.60;91.90;;;;;;4841489;29;20500;-76
2021/08/23 03:55:09;;;;;;;67.63;27.88;;;15.60;91.90;;;;;;4840922;29;20080;-76
2021/08/23 03:57:38;;;;;;;75.25;27.42;;;15.60;92.00;;;;;;4839835;29;20050;-76
2021/08/23 04:00:08;;;;;;;74.55;28.02;;;15.60;92.00;;;;;;4840163;29;20062;-76
2021/08/23 04:02:37;;;;;;;79.18;29.63;;;15.60;92.00;;;;;;4826225;29;20069;-75
2021/08/23 04:05:06;;;;;;;83.13;28.77;;;15.50;92.00;;;;;;4823018;29;20051;-75
2021/08/23 04:07:34;;;;;;;68.13;28.23;;;15.60;92.00;;;;;;4822638;29;20047;-75
2021/08/23 04:10:03;;;;;;;74.07;28.27;;;15.50;92.10;;;;;;4823349;29;20046;-75
2021/08/23 04:12:32;;;;;;;71.60;29.52;;;15.50;92.10;;;;;;4821656;29;20058;-75
2021/08/23 04:15:00;;;;;;;72.85;29.65;;;15.50;92.10;;;;;;4806523;29;20397;-75
2021/08/23 04:17:28;;;;;;;69.28;28.20;;;15.60;92.10;;;;;;4836725;29;20054;-75
2021/08/23 04:19:56;;;;;;;70.10;29.10;;;15.50;92.10;;;;;;4822844;29;20077;-75
2021/08/23 04:22:24;;;;;;;77.70;30.17;;;15.50;92.20;;;;;;4823073;29;20078;-75
2021/08/23 04:24:51;;;;;;;76.18;30.05;;;15.60;92.20;;;;;;4806334;29;20051;-75
2021/08/23 04:27:19;;;;;;;75.75;29.38;;;15.60;92.20;;;;;;4821748;29;20066;-75
2021/08/23 04:29:48;;;;;;;80.63;31.23;;;15.60;92.30;;;;;;4822980;29;20121;-76
2021/08/23 04:32:17;;;;;;;72.75;29.25;;;15.60;92.30;;;;;;4823014;29;20054;-75
2021/08/23 04:34:45;;;;;;;68.78;29.08;;;15.60;92.30;;;;;;4823010;29;20051;-76
2021/08/23 04:37:13;;;;;;;76.78;29.55;;;15.60;92.30;;;;;;4822875;29;20061;-75
2021/08/23 04:39:41;;;;;;;70.93;29.27;;;15.60;92.30;;;;;;4822956;29;20425;-76
2021/08/23 04:42:10;;;;;;;73.40;29.98;;;15.70;92.40;;;;;;4828906;29;20061;-76
2021/08/23 04:44:38;;;;;;;65.93;28.65;;;15.60;92.30;;;;;;4821551;29;20062;-75
2021/08/23 04:47:06;;;;;;;71.63;29.05;;;15.60;92.30;;;;;;4808711;29;20054;-76
2021/08/23 04:49:34;;;;;;;71.50;28.60;;;15.70;92.30;;;;;;4809999;29;20051;-75
2021/08/23 04:52:02;;;;;;;66.82;28.83;;;15.60;92.30;;;;;;4815756;29;20405;-75
2021/08/23 04:54:30;;;;;;;68.32;28.40;;;15.70;92.40;;;;;;4830451;29;20053;-75
2021/08/23 04:56:57;;;;;;;70.80;29.88;;;15.70;92.30;;;;;;4831536;29;20148;-75
2021/08/23 04:59:28;;;;;;;78.15;30.25;;;15.70;92.30;;;;;;4817160;29;20038;-75
2021/08/23 05:01:57;;;;;;;92.50;32.35;;;15.70;92.30;;;;;;4819565;29;20061;-75
2021/08/23 05:04:29;;;;;;;80.95;30.42;;;15.70;92.30;;;;;;4820724;29;20039;-76
2021/08/23 05:06:57;;;;;;;83.97;31.30;;;15.70;92.30;;;;;;4806307;29;20421;-76
2021/08/23 05:09:26;;;;;;;86.40;31.27;;;15.70;92.30;;;;;;4822715;29;20055;-76
2021/08/23 05:11:55;;;;;;;81.53;30.80;;;15.70;92.30;;;;;;4806959;29;20066;-76
2021/08/23 05:14:24;;;;;;;83.65;31.25;;;15.70;92.30;;;;;;4823162;29;20516;-76
2021/08/23 05:16:52;;;;;;;87.80;31.70;;;15.70;92.30;;;;;;4809734;29;20061;-76
2021/08/23 05:19:20;;;;;;;85.03;30.98;;;15.70;92.30;;;;;;4824849;29;20064;-76
2021/08/23 05:21:48;;;;;;;82.05;32.15;;;15.70;92.30;;;;;;4825565;29;20050;-75
2021/08/23 05:24:15;;;;;;;81.35;31.73;;;15.70;92.40;;;;;;4810114;29;20223;-75
2021/08/23 05:26:43;;;;;;;82.28;31.10;;;15.70;92.40;;;;;;4838286;29;20061;-75
2021/08/23 05:29:11;;;;;;;93.55;32.75;;;15.70;92.40;;;;;;4850723;29;20043;-75
2021/08/23 05:31:39;;;;;;;81.78;31.20;;;15.70;92.40;;;;;;4823969;29;20047;-79
2021/08/23 05:34:07;;;;;;;77.05;30.65;;;15.70;92.40;;;;;;4825223;29;20054;-75
2021/08/23 05:36:34;;;;;;;399.83;250.55;;;15.70;92.40;;;;;;4825077;29;20058;-75
2021/08/23 05:39:02;;;;;;;87.75;32.13;;;15.70;92.50;;;;;;4824351;29;20046;-75
2021/08/23 05:41:32;;;;;;;100.95;39.88;;;15.60;92.50;;;;;;4823525;29;20054;-75
2021/08/23 05:44:00;;;;;;;86.95;34.97;;;15.70;92.60;;;;;;4823534;29;20058;-74
2021/08/23 05:46:27;;;;;;;87.35;32.70;;;15.70;92.60;;;;;;4824874;29;20069;-76
2021/08/23 05:48:56;;;;;;;80.32;32.85;;;15.70;92.60;;;;;;4823971;29;20050;-75
2021/08/23 05:51:23;;;;;;;72.00;30.90;;;15.70;92.60;;;;;;4830946;29;20046;-76
2021/08/23 05:53:51;;;;;;;44.00;24.30;;;15.70;92.50;;;;;;4829744;29;20400;-75
2021/08/23 05:56:19;;;;;;;42.55;23.55;;;15.80;92.40;;;;;;4801488;29;20519;-75
2021/08/23 05:58:47;;;;;;;40.33;23.48;;;15.80;92.10;;;;;;4833240;29;20057;-75
2021/08/23 06:01:15;;;;;;;43.58;24.45;;;15.80;91.80;;;;;;4832089;29;20046;-75
2021/08/23 06:03:44;;;;;;;43.42;23.95;;;15.80;91.40;;;;;;4831894;29;20053;-74
2021/08/23 06:06:13;;;;;;;44.85;24.63;;;15.80;91.30;;;;;;4845677;29;20134;-75
2021/08/23 06:08:41;;;;;;;44.90;25.25;;;15.80;91.00;;;;;;4824594;29;20061;-75
2021/08/23 06:11:09;;;;;;;48.25;25.33;;;15.80;90.90;;;;;;4822477;29;20058;-74
2021/08/23 06:13:37;;;;;;;45.05;25.38;;;15.80;90.70;;;;;;4824519;29;20417;-75
2021/08/23 06:16:06;;;;;;;44.00;23.85;;;15.80;90.50;;;;;;4823685;29;20054;-74
2021/08/23 06:18:33;;;;;;;41.08;23.48;;;15.80;90.40;;;;;;4824018;29;20050;-73
2021/08/23 06:21:03;;;;;;;45.53;25.30;;;15.70;90.30;;;;;;4823698;29;20058;-75
2021/08/23 06:23:31;;;;;;;45.10;24.45;;;15.70;90.30;;;;;;4808876;29;20042;-76
2021/08/23 06:26:02;;;;;;;41.03;23.63;;;15.80;90.30;;;;;;4824224;29;20061;-75
2021/08/23 06:28:31;;;;;;;40.00;22.70;;;15.80;90.20;;;;;;4823742;29;20058;-74
2021/08/23 06:30:59;;;;;;;39.08;23.30;;;15.90;90.00;;;;;;4824437;29;20500;-74
2021/08/23 06:33:27;;;;;;;38.17;22.85;;;16.00;89.80;;;;;;4806407;29;20082;-75
2021/08/23 06:35:54;;;;;;;35.80;20.92;;;16.00;89.60;;;;;;4806146;29;20501;-75
2021/08/23 06:38:22;;;;;;;30.85;19.60;;;16.10;89.50;;;;;;4805524;29;20047;-74
2021/08/23 06:40:50;;;;;;;31.98;18.92;;;16.20;89.30;;;;;;4804194;29;20228;-75
2021/08/23 06:43:17;;;;;;;34.15;20.48;;;16.20;89.10;;;;;;4806196;29;20524;-75
2021/08/23 06:45:45;;;;;;;31.13;17.98;;;16.30;88.90;;;;;;4822867;29;20069;-76
2021/08/23 06:48:13;;;;;;;26.52;18.00;;;16.30;88.70;;;;;;4821774;29;20065;-74
2021/08/23 06:50:41;;;;;;;33.72;19.45;;;16.20;88.50;;;;;;4821948;29;20073;-74
2021/08/23 06:53:09;;;;;;;31.67;18.73;;;16.20;88.50;;;;;;4822328;29;20441;-74
2021/08/23 06:55:37;;;;;;;29.08;19.17;;;16.10;88.60;;;;;;4791696;29;20513;-74
2021/08/23 06:58:05;;;;;;;29.40;18.20;;;16.10;88.60;;;;;;4823194;29;20046;-75
2021/08/23 07:00:32;;;;;;;30.50;19.42;;;16.00;88.60;;;;;;4822298;29;20046;-74
2021/08/23 07:03:02;;;;;;;32.28;18.88;;;16.00;88.60;;;;;;4821217;29;20542;-76
2021/08/23 07:05:31;;;;;;;29.35;19.73;;;16.00;88.70;;;;;;4827287;29;20070;-75
2021/08/23 07:07:59;;;;;;;29.80;18.95;;;16.00;88.60;;;;;;4852074;29;20062;-75
2021/08/23 07:10:28;;;;;;;26.27;16.88;;;16.00;88.60;;;;;;4848118;29;20053;-75
2021/08/23 07:12:57;;;;;;;25.00;16.60;;;16.00;88.50;;;;;;4801395;29;20061;-76
2021/08/23 07:15:26;;;;;;;22.45;15.10;;;16.00;88.30;;;;;;4814875;29;20054;-75
2021/08/23 07:17:54;;;;;;;24.08;15.63;;;15.90;88.20;;;;;;4831551;29;20050;-76
2021/08/23 07:20:24;;;;;;;23.45;15.73;;;15.90;88.10;;;;;;4832387;29;20381;-76
2021/08/23 07:22:52;;;;;;;22.10;13.73;;;15.90;87.90;;;;;;4814763;29;20058;-74
2021/08/23 07:25:22;;;;;;;23.67;14.73;;;16.00;87.80;;;;;;4839400;29;20054;-75
2021/08/23 07:27:52;;;;;;;19.42;12.80;;;16.10;87.70;;;;;;4818537;29;20050;-75
2021/08/23 07:30:22;;;;;;;14.40;10.70;;;16.20;87.40;;;;;;4830884;29;20053;-76
2021/08/23 07:32:51;;;;;;;15.13;8.77;;;16.30;87.20;;;;;;4798690;29;20428;-76
2021/08/23 07:35:21;;;;;;;13.48;9.15;;;16.50;86.60;;;;;;4831660;29;20061;-76
2021/08/23 07:37:50;;;;;;;11.18;7.35;;;16.60;86.10;;;;;;4831024;29;20505;-76
2021/08/23 07:40:18;;;;;;;10.80;7.13;;;16.80;85.70;;;;;;4831082;29;20042;-76
2021/08/23 07:42:46;;;;;;;10.93;6.30;;;16.80;85.20;;;;;;4830644;29;20073;-76
2021/08/23 07:45:16;;;;;;;7.95;5.43;;;17.00;84.60;;;;;;4832386;29;20219;-75
2021/08/23 07:47:44;;;;;;;7.18;5.55;;;17.10;84.20;;;;;;4827654;29;20073;-75
2021/08/23 07:50:13;;;;;;;6.88;5.50;;;17.20;83.80;;;;;;4831802;29;20416;-74
2021/08/23 07:52:41;;;;;;;7.97;5.25;;;17.30;83.60;;;;;;4816345;29;20064;-74
2021/08/23 07:55:10;;;;;;;7.72;5.40;;;17.40;83.10;;;;;;4851969;29;20042;-74
2021/08/23 07:57:44;;;;;;;6.50;4.88;;;17.50;82.70;;;;;;4833063;29;20054;-75
2021/08/23 08:00:13;;;;;;;6.13;5.22;;;17.60;82.40;;;;;;4849994;29;20501;-75
2021/08/23 08:02:42;;;;;;;9.30;4.57;;;17.70;82.20;;;;;;4851660;29;20049;-75
2021/08/23 08:05:12;;;;;;;4.88;3.60;;;17.80;81.90;;;;;;4830586;29;20416;-75
2021/08/23 08:07:41;;;;;;;4.28;3.65;;;17.80;81.70;;;;;;4830857;29;20055;-75
2021/08/23 08:10:17;;;;;;;3.67;3.00;;;17.90;81.30;;;;;;4832226;29;20058;-74
2021/08/23 08:12:45;;;;;;;3.55;2.67;;;17.90;81.00;;;;;;4854143;29;20049;-74
2021/08/23 08:15:15;;;;;;;3.97;2.63;;;17.90;80.80;;;;;;4829645;29;20513;-75
2021/08/23 08:17:43;;;;;;;2.30;2.10;;;17.90;80.70;;;;;;4828553;29;20493;-75
2021/08/23 08:20:11;;;;;;;5.60;1.92;;;18.00;80.60;;;;;;4828339;29;20515;-75
2021/08/23 08:22:40;;;;;;;3.08;2.10;;;18.00;80.30;;;;;;4826906;29;20420;-75
2021/08/23 08:25:08;;;;;;;4.35;2.00;;;18.00;80.00;;;;;;4829609;29;20065;-74
2021/08/23 08:27:36;;;;;;;3.55;2.10;;;18.00;80.00;;;;;;4829773;29;20049;-74
2021/08/23 08:30:06;;;;;;;2.30;1.60;;;18.00;79.90;;;;;;4836691;29;20412;-75
2021/08/23 08:32:34;;;;;;;2.58;1.30;;;18.10;79.80;;;;;;4830645;29;20046;-75
2021/08/23 08:35:05;;;;;;;2.03;1.30;;;18.10;79.30;;;;;;4846976;29;20054;-75
2021/08/23 08:37:33;;;;;;;1.20;1.05;;;18.20;79.30;;;;;;4830249;29;20041;-75
2021/08/23 08:40:02;;;;;;;2.50;1.30;;;18.30;79.10;;;;;;4831848;29;20053;-75
2021/08/23 08:42:30;;;;;;;4.30;1.35;;;18.30;78.90;;;;;;4834007;29;20519;-75
2021/08/23 08:44:57;;;;;;;1.33;1.20;;;18.40;78.30;;;;;;4830104;29;20062;-76
2021/08/23 08:47:26;;;;;;;1.20;1.10;;;18.40;78.30;;;;;;4833789;29;20050;-76
2021/08/23 08:49:57;;;;;;;2.15;1.27;;;18.50;78.30;;;;;;4857311;29;20062;-74
2021/08/23 08:52:25;;;;;;;1.40;1.10;;;18.70;77.80;;;;;;4832766;29;20065;-75
2021/08/23 08:54:54;;;;;;;1.38;1.05;;;18.70;77.40;;;;;;4835135;29;20424;-75
2021/08/23 08:57:21;;;;;;;4.15;1.20;;;18.80;77.10;;;;;;4835971;29;20445;-75
2021/08/23 08:59:49;;;;;;;2.63;1.40;;;18.80;76.70;;;;;;4834462;29;20049;-77
2021/08/23 09:02:20;;;;;;;1.17;1.10;;;18.90;76.50;;;;;;4818558;29;20052;-76
2021/08/23 09:04:48;;;;;;;1.40;1.30;;;18.90;76.30;;;;;;4833274;29;20050;-74
2021/08/23 09:07:15;;;;;;;1.90;1.20;;;19.00;76.10;;;;;;4833245;29;20053;-74
2021/08/23 09:09:45;;;;;;;1.52;1.42;;;19.00;76.00;;;;;;4833182;29;20058;-74
2021/08/23 09:12:14;;;;;;;2.38;1.42;;;19.20;75.50;;;;;;4833908;29;20046;-74
2021/08/23 09:14:51;;;;;;;1.77;1.30;;;19.20;74.90;;;;;;4851560;29;20047;-75
2021/08/23 09:17:24;;;;;;;1.92;1.40;;;19.30;74.30;;;;;;4832305;29;20050;-74
2021/08/23 09:20:00;;;;;;;3.83;1.60;;;19.30;73.80;;;;;;4818565;29;20050;-74
2021/08/23 09:22:28;;;;;;;3.13;1.20;;;19.40;72.80;;;;;;4837291;29;20070;-74
2021/08/23 09:25:10;;;;;;;1.77;1.30;;;19.50;72.10;;;;;;4826680;29;20054;-75
2021/08/23 09:27:38;;;;;;;3.33;1.33;;;19.60;71.30;;;;;;4824980;29;20061;-75
2021/08/23 09:30:11;;;;;;;1.60;1.17;;;19.70;70.90;;;;;;4821389;29;20046;-76
2021/08/23 09:32:50;;;;;;;3.17;1.65;;;19.80;70.50;;;;;;4823764;29;20531;-75
2021/08/23 09:35:30;;;;;;;2.13;1.80;;;19.90;69.70;;;;;;4825457;29;20055;-74
2021/08/23 09:37:59;;;;;;;3.85;1.52;;;20.00;69.20;;;;;;4824967;29;20068;-75
2021/08/23 09:40:31;;;;;;;3.30;1.40;;;20.00;68.90;;;;;;4833762;29;20058;-74
2021/08/23 09:43:10;;;;;;;3.80;1.60;;;20.10;68.30;;;;;;4843526;29;20050;-75
2021/08/23 09:45:44;;;;;;;2.67;1.45;;;20.20;68.10;;;;;;4857510;29;20057;-75
2021/08/23 09:48:12;;;;;;;2.92;1.33;;;20.30;67.00;;;;;;4842017;29;20049;-78
2021/08/23 09:50:44;;;;;;;3.50;1.48;;;20.30;66.10;;;;;;4843250;29;20519;-74
2021/08/23 09:53:19;;;;;;;4.78;1.60;;;20.70;65.70;;;;;;4835200;29;20141;-75
2021/08/23 09:55:50;;;;;;;3.38;1.52;;;20.90;65.70;;;;;;4824285;29;20035;-76
2021/08/23 09:58:18;;;;;;;1.63;1.30;;;21.00;65.10;;;;;;4824800;29;20069;-74
2021/08/23 10:00:46;;;;;;;2.92;1.48;;;21.10;64.70;;;;;;4824936;29;20054;-75
2021/08/23 10:03:17;;;;;;;2.15;1.40;;;21.20;64.20;;;;;;4824846;29;20054;-77
2021/08/23 10:05:50;;;;;;;2.42;1.40;;;21.20;63.40;;;;;;4825223;29;20062;-75
2021/08/23 10:08:24;;;;;;;2.00;1.60;;;21.00;63.30;;;;;;4827417;29;20050;-76
2021/08/23 10:10:52;;;;;;;3.35;1.63;;;20.90;63.40;;;;;;4814751;29;20051;-74
2021/08/23 10:13:21;;;;;;;2.08;1.70;;;20.80;63.80;;;;;;4832996;29;20062;-77
2021/08/23 10:15:49;;;;;;;5.30;1.77;;;20.60;64.10;;;;;;4824648;29;20053;-74
2021/08/23 10:18:22;;;;;;;2.88;1.40;;;20.60;64.30;;;;;;4823145;29;20065;-80
2021/08/23 10:20:50;;;;;;;2.28;1.55;;;20.60;64.10;;;;;;4827405;29;20057;-75
2021/08/23 10:23:19;;;;;;;3.60;1.70;;;20.70;64.20;;;;;;4825124;29;20397;-79
2021/08/23 10:25:47;;;;;;;3.92;2.00;;;20.70;64.20;;;;;;4834030;29;20053;-75
2021/08/23 10:28:20;;;;;;;2.88;1.90;;;20.70;64.00;;;;;;4817048;29;21883;-76
2021/08/23 10:30:50;;;;;;;2.80;1.52;;;20.80;63.50;;;;;;4820937;29;20046;-75
2021/08/23 10:33:19;;;;;;;4.97;1.73;;;20.90;62.70;;;;;;4847527;29;20067;-75
2021/08/23 10:35:53;;;;;;;2.42;1.73;;;21.10;61.90;;;;;;4821071;29;20065;-75
2021/08/23 10:38:23;;;;;;;2.72;1.38;;;21.10;62.30;;;;;;4822961;29;20505;-75
2021/08/23 10:41:07;;;;;;;3.72;1.52;;;21.40;61.60;;;;;;4822596;29;20046;-75
2021/08/23 10:43:48;;;;;;;3.90;1.30;;;21.70;60.40;;;;;;4822085;29;20050;-75
2021/08/23 10:46:29;;;;;;;3.30;1.65;;;21.90;60.00;;;;;;4833020;29;20062;-75
2021/08/23 10:48:59;;;;;;;2.33;1.13;;;22.20;59.70;;;;;;4821203;29;20058;-75
2021/08/23 10:51:37;;;;;;;4.10;1.30;;;22.40;59.40;;;;;;4822464;29;20394;-75
2021/08/23 10:54:24;;;;;;;3.53;1.20;;;22.80;57.60;;;;;;4823457;29;20046;-75
2021/08/23 10:57:02;;;;;;;2.30;1.20;;;22.90;55.70;;;;;;4823395;29;20069;-75
2021/08/23 10:59:45;;;;;;;1.83;1.05;;;22.80;55.90;;;;;;4821307;29;20544;-76
2021/08/23 11:02:20;;;;;;;2.73;1.10;;;22.60;55.70;;;;;;4822397;29;20517;-75
2021/08/23 11:05:09;;;;;;;2.90;1.40;;;22.50;56.40;;;;;;4807111;29;20049;-74
2021/08/23 11:07:47;;;;;;;5.65;1.30;;;22.30;56.90;;;;;;4811389;29;20050;-74
2021/08/23 11:10:17;;;;;;;2.05;1.17;;;22.30;57.20;;;;;;4822178;29;20061;-75
2021/08/23 11:12:51;;;;;;;4.40;1.38;;;22.30;57.10;;;;;;4822982;29;20074;-75
2021/08/23 11:15:25;;;;;;;3.25;1.40;;;22.30;57.30;;;;;;4822018;29;20058;-75
2021/08/23 11:18:14;;;;;;;3.45;1.40;;;22.30;57.40;;;;;;4834888;29;20042;-75
2021/08/23 11:20:51;;;;;;;2.88;1.48;;;22.50;56.70;;;;;;4838513;29;20046;-75
2021/08/23 11:23:25;;;;;;;2.60;1.40;;;22.50;56.60;;;;;;4823074;29;20082;-75
2021/08/23 11:25:55;;;;;;;1.73;1.10;;;22.70;55.70;;;;;;4823275;29;20067;-75
2021/08/23 11:28:27;;;;;;;1.95;1.30;;;22.90;55.00;;;;;;4821244;29;20050;-74
2021/08/23 11:31:04;;;;;;;3.38;1.10;;;23.00;55.00;;;;;;4823048;29;20050;-75
2021/08/23 11:33:39;;;;;;;2.67;1.23;;;22.90;54.50;;;;;;4823330;29;20046;-75
2021/08/23 11:36:20;;;;;;;3.65;1.33;;;22.90;54.70;;;;;;4823280;29;20051;-74
2021/08/23 11:38:47;;;;;;;2.05;1.25;;;22.80;54.90;;;;;;4823381;29;20051;-77
2021/08/23 11:41:20;;;;;;;1.35;1.20;;;22.80;55.20;;;;;;4821940;29;20408;-76
2021/08/23 11:43:48;;;;;;;3.10;1.35;;;22.60;55.10;;;;;;4822296;29;20412;-75
2021/08/23 11:46:15;;;;;;;4.60;1.50;;;22.40;55.20;;;;;;4822561;29;20054;-75
2021/08/23 11:48:46;;;;;;;3.35;1.67;;;22.30;55.90;;;;;;4822586;29;20050;-74
2021/08/23 11:51:32;;;;;;;4.80;1.70;;;22.20;56.30;;;;;;4821222;29;20054;-75
2021/08/23 11:54:04;;;;;;;3.70;1.20;;;22.20;56.50;;;;;;4834039;29;20052;-75
2021/08/23 11:56:32;;;;;;;1.50;1.40;;;22.20;56.20;;;;;;4838065;29;20054;-74
2021/08/23 11:59:10;;;;;;;2.10;1.52;;;22.20;55.90;;;;;;4832964;29;20061;-74
2021/08/23 12:01:37;;;;;;;3.40;1.80;;;22.10;55.90;;;;;;4830191;29;20065;-75
2021/08/23 12:04:05;;;;;;;4.35;1.63;;;22.00;56.60;;;;;;4827119;29;20051;-75
2021/08/23 12:06:34;;;;;;;1.90;1.70;;;22.10;56.80;;;;;;4830480;29;20077;-74
2021/08/23 12:09:03;;;;;;;3.30;1.50;;;22.50;55.90;;;;;;4848955;29;20053;-75
2021/08/23 12:11:45;;;;;;;5.03;1.65;;;22.90;54.70;;;;;;4829359;29;20065;-75
2021/08/23 12:14:17;;;;;;;2.35;1.60;;;23.40;54.00;;;;;;4825915;29;20400;-75
2021/08/23 12:16:48;;;;;;;2.80;1.40;;;23.80;52.50;;;;;;4829925;29;20058;-75
2021/08/23 12:19:16;;;;;;;4.03;1.58;;;24.10;50.90;;;;;;4850744;29;20063;-75
2021/08/23 12:21:46;;;;;;;3.60;1.60;;;24.50;50.20;;;;;;4827552;29;20440;-75
2021/08/23 12:24:21;;;;;;;1.75;1.40;;;24.90;49.50;;;;;;4851814;29;20046;-75
2021/08/23 12:26:54;;;;;;;5.20;1.60;;;25.30;48.80;;;;;;4855380;29;20046;-75
2021/08/23 12:29:25;;;;;;;3.97;1.50;;;25.40;48.20;;;;;;4830586;29;20127;-75
2021/08/23 12:32:03;;;;;;;6.30;1.70;;;25.30;48.40;;;;;;4830126;29;20061;-74
2021/08/23 12:34:33;;;;;;;4.53;1.70;;;25.00;48.60;;;;;;4827905;29;20065;-74
2021/08/23 12:37:02;;;;;;;3.13;1.50;;;25.00;48.10;;;;;;4825184;29;20058;-75
2021/08/23 12:39:30;;;;;;;4.10;1.42;;;24.80;48.80;;;;;;4824282;29;20062;-76
2021/08/23 12:42:01;;;;;;;4.63;1.23;;;25.00;49.50;;;;;;4828906;29;20393;-76
2021/08/23 12:44:29;;;;;;;1.95;1.27;;;25.20;49.20;;;;;;4818739;29;20053;-76
2021/08/23 12:47:01;;;;;;;2.22;1.35;;;25.50;48.60;;;;;;4829208;29;20050;-75
2021/08/23 12:49:29;;;;;;;3.35;1.50;;;25.90;48.30;;;;;;4830137;29;20058;-75